Time;durP1;ratioP1;P1;durP2;ratioP2;P2;SDS_P1;SDS_P2;PMS_P1;PMS_P2;Temp;Humidity;BMP_temperature;BMP_pressure;BME280_temperature;BME280_humidity;BME280_pressure;Samples;Min_cycle;Max_cycle;Signal;HPM_P1;HPM_P2
2023/10/07 00:00:32;;;;;;;;;3.40;3.40;;;;;15.50;68.85;100397.06;5035334;28;8905;-58
2023/10/07 00:03:00;;;;;;;;;6.00;5.50;;;;;15.49;68.27;100395.38;5035807;28;8841;-58
2023/10/07 00:05:32;;;;;;;;;4.00;4.00;;;;;15.48;68.85;100405.25;5034444;28;8855;-59
2023/10/07 00:08:02;;;;;;;;;3.00;3.00;;;;;15.48;68.55;100417.84;5034550;28;8816;-58
2023/10/07 00:10:30;;;;;;;;;5.00;4.50;;;;;15.47;68.70;100410.78;5034410;28;8836;-59
2023/10/07 00:13:00;;;;;;;;;3.25;3.00;;;;;15.47;67.79;100422.34;5034426;28;8840;-59
2023/10/07 00:15:29;;;;;;;;;4.00;3.25;;;;;15.46;68.58;100427.88;5034382;28;8851;-59
2023/10/07 00:18:00;;;;;;;;;3.00;3.00;;;;;15.43;68.31;100422.75;5014993;28;8834;-59
2023/10/07 00:20:28;;;;;;;;;4.00;3.60;;;;;15.44;68.29;100429.81;5015510;28;8980;-58
2023/10/07 00:23:00;;;;;;;;;5.50;5.50;;;;;15.43;68.68;100431.69;5015661;28;8855;-59
2023/10/07 00:25:30;;;;;;;;;1.80;1.00;;;;;15.41;68.68;100436.31;5015754;28;8830;-57
2023/10/07 00:27:58;;;;;;;;;6.25;6.00;;;;;15.38;68.35;100435.75;5014948;28;8846;-56
2023/10/07 00:30:29;;;;;;;;;2.00;2.00;;;;;15.35;68.05;100441.41;5015591;28;8854;-57
2023/10/07 00:32:58;;;;;;;;;3.00;2.00;;;;;15.34;68.71;100437.91;5016048;28;8898;-56
2023/10/07 00:35:27;;;;;;;;;3.00;2.50;;;;;15.33;68.29;100440.72;5015378;28;9594;-58
2023/10/07 00:37:58;;;;;;;;;4.00;3.75;;;;;15.32;68.64;100441.69;5015560;28;8874;-58
2023/10/07 00:40:41;;;;;;;;;4.00;3.75;;;;;15.33;68.50;100438.84;5015542;28;8826;-57
2023/10/07 00:43:10;;;;;;;;;3.00;3.00;;;;;15.32;68.35;100430.97;5015512;28;8839;-59
2023/10/07 00:45:38;;;;;;;;;4.00;4.00;;;;;15.30;68.68;100430.19;5015680;28;8831;-57
2023/10/07 00:48:11;;;;;;;;;3.00;1.00;;;;;15.27;68.31;100434.03;5015589;28;8827;-58
2023/10/07 00:50:38;;;;;;;;;3.00;3.00;;;;;15.26;68.68;100428.81;5015079;28;8826;-58
2023/10/07 00:53:09;;;;;;;;;1.00;1.00;;;;;15.24;68.52;100436.16;5023622;28;8822;-58
2023/10/07 00:55:37;;;;;;;;;3.75;3.75;;;;;15.21;68.64;100428.38;5034825;28;8849;-59
2023/10/07 00:58:07;;;;;;;;;3.00;3.00;;;;;15.19;69.43;100422.28;5039084;28;9505;-57
2023/10/07 01:00:49;;;;;;;;;4.00;4.00;;;;;15.16;69.20;100417.22;5045905;28;8829;-57
2023/10/07 01:03:32;;;;;;;;;4.00;3.00;;;;;15.12;69.30;100413.97;5048653;28;8838;-57
2023/10/07 01:06:10;;;;;;;;;4.00;3.00;;;;;15.10;68.92;100420.44;5046944;28;8979;-59
2023/10/07 01:08:44;;;;;;;;;4.00;4.00;;;;;15.07;68.88;100409.97;5034465;28;9530;-57
2023/10/07 01:11:19;;;;;;;;;5.33;5.33;;;;;15.04;69.41;100408.44;5034685;28;8918;-58
2023/10/07 01:13:50;;;;;;;;;3.50;3.50;;;;;15.02;69.33;100401.53;5034571;28;8845;-57
2023/10/07 01:16:27;;;;;;;;;4.00;4.00;;;;;14.98;69.90;100394.72;5034655;28;8914;-59
2023/10/07 01:19:04;;;;;;;;;6.75;6.00;;;;;14.96;70.16;100407.44;5034948;28;8874;-58
2023/10/07 01:21:33;;;;;;;;;3.00;3.00;;;;;14.95;70.07;100405.75;5034503;28;8955;-57
2023/10/07 01:24:05;;;;;;;;;5.00;3.75;;;;;14.94;69.66;100396.00;5034584;28;8828;-57
2023/10/07 01:26:36;;;;;;;;;6.00;5.00;;;;;14.92;70.13;100384.53;5035090;28;8829;-57
2023/10/07 01:29:12;;;;;;;;;5.50;4.00;;;;;14.91;70.03;100366.75;5034716;28;8837;-56
2023/10/07 01:31:48;;;;;;;;;3.00;3.00;;;;;14.89;69.67;100366.94;5034507;28;8857;-58
2023/10/07 01:34:24;;;;;;;;;3.00;3.00;;;;;14.89;70.19;100371.44;5034510;28;8834;-58
2023/10/07 01:36:52;;;;;;;;;3.75;3.00;;;;;14.91;70.11;100366.75;5034281;28;8824;-57
2023/10/07 01:39:22;;;;;;;;;3.50;3.50;;;;;14.92;69.49;100363.09;5037344;28;8859;-58
2023/10/07 01:41:50;;;;;;;;;5.25;3.50;;;;;14.91;69.93;100366.75;5038544;28;8817;-58
2023/10/07 01:44:24;;;;;;;;;4.50;4.50;;;;;14.89;69.84;100368.75;5038970;28;9506;-59
2023/10/07 01:46:56;;;;;;;;;3.00;3.00;;;;;14.88;70.35;100362.53;5039006;28;9552;-57
2023/10/07 01:49:24;;;;;;;;;4.00;4.00;;;;;14.88;69.95;100383.16;5039021;28;8947;-59
2023/10/07 01:51:53;;;;;;;;;5.50;4.00;;;;;14.89;70.20;100374.09;5038453;28;8842;-58
2023/10/07 01:54:21;;;;;;;;;4.00;4.00;;;;;14.91;69.72;100380.19;5038529;28;9540;-58
2023/10/07 01:56:52;;;;;;;;;5.00;4.75;;;;;14.92;70.12;100385.41;5038515;28;8836;-58
2023/10/07 01:59:20;;;;;;;;;4.00;4.00;;;;;14.94;70.08;100391.47;5038048;28;8829;-57
2023/10/07 02:01:53;;;;;;;;;5.00;5.00;;;;;14.98;70.13;100400.94;5038466;28;8869;-58
2023/10/07 02:04:26;;;;;;;;;3.00;3.00;;;;;15.01;69.89;100397.97;5040871;28;8989;-59
2023/10/07 02:06:56;;;;;;;;;4.00;4.00;;;;;15.04;70.28;100389.69;5018202;28;8912;-57
2023/10/07 02:09:28;;;;;;;;;6.00;4.00;;;;;15.05;69.96;100393.19;5032324;28;8826;-57
2023/10/07 02:11:55;;;;;;;;;3.00;3.00;;;;;15.07;70.23;100385.84;5021650;28;8818;-57
2023/10/07 02:14:25;;;;;;;;;5.00;3.75;;;;;15.09;69.92;100387.41;5018905;28;8889;-57
2023/10/07 02:16:53;;;;;;;;;7.00;5.50;;;;;15.12;70.19;100370.19;5055284;28;8841;-57
2023/10/07 02:19:29;;;;;;;;;3.75;3.75;;;;;15.13;70.14;100366.50;5051694;28;8902;-57
2023/10/07 02:21:59;;;;;;;;;7.00;6.75;;;;;15.15;70.21;100367.22;5037897;28;8836;-57
2023/10/07 02:24:29;;;;;;;;;2.50;2.00;;;;;15.16;70.15;100368.94;5037760;28;8825;-60
2023/10/07 02:26:59;;;;;;;;;4.00;4.00;;;;;15.17;70.45;100362.56;5038057;28;8832;-58
2023/10/07 02:29:27;;;;;;;;;4.50;4.50;;;;;15.19;70.59;100360.59;5037674;28;8828;-57
2023/10/07 02:32:05;;;;;;;;;4.00;4.00;;;;;15.19;70.29;100363.28;5046611;28;8849;-57
2023/10/07 02:34:34;;;;;;;;;7.00;4.00;;;;;15.21;69.98;100369.34;5058034;28;8826;-58
2023/10/07 02:37:13;;;;;;;;;3.50;3.50;;;;;15.21;69.99;100374.69;5057923;28;8826;-58
2023/10/07 02:39:47;;;;;;;;;5.50;5.50;;;;;15.22;70.18;100384.44;5057755;28;8818;-57
2023/10/07 02:42:22;;;;;;;;;6.75;6.50;;;;;15.23;70.56;100391.50;5057686;28;9503;-56
2023/10/07 02:44:51;;;;;;;;;7.00;7.00;;;;;15.25;70.28;100397.59;5057197;28;8834;-58
2023/10/07 02:47:19;;;;;;;;;6.00;6.00;;;;;15.25;70.23;100390.38;5057515;28;8838;-58
2023/10/07 02:49:49;;;;;;;;;6.50;6.50;;;;;15.28;70.48;100392.78;5056217;28;8826;-57
2023/10/07 02:52:19;;;;;;;;;6.25;5.50;;;;;15.30;70.57;100384.59;5057825;28;8815;-57
2023/10/07 02:55:11;;;;;;;;;6.00;6.00;;;;;15.31;70.58;100397.91;5057234;28;8846;-57
2023/10/07 02:57:40;;;;;;;;;6.50;6.00;;;;;15.33;70.60;100403.13;5056902;28;8842;-57
2023/10/07 03:00:16;;;;;;;;;6.00;6.00;;;;;15.32;70.23;100404.97;5056876;28;8866;-57
2023/10/07 03:02:50;;;;;;;;;7.00;4.00;;;;;15.33;70.35;100398.59;5057206;28;9504;-57
2023/10/07 03:05:28;;;;;;;;;10.50;10.00;;;;;15.33;70.51;100405.81;5057026;28;9176;-57
2023/10/07 03:08:06;;;;;;;;;6.75;6.75;;;;;15.32;70.41;100401.44;5051806;28;8833;-57
2023/10/07 03:10:43;;;;;;;;;7.75;6.00;;;;;15.32;70.79;100391.53;5036897;28;8840;-57
2023/10/07 03:13:15;;;;;;;;;6.50;6.50;;;;;15.32;70.60;100382.66;5033143;28;8962;-58
2023/10/07 03:15:46;;;;;;;;;9.00;9.00;;;;;15.31;70.82;100386.31;5025370;28;8829;-57
2023/10/07 03:18:23;;;;;;;;;9.00;7.00;;;;;15.34;70.46;100396.78;5035992;28;8951;-57
2023/10/07 03:21:06;;;;;;;;;9.00;8.00;;;;;15.36;70.82;100394.78;5030930;28;8819;-57
2023/10/07 03:23:35;;;;;;;;;3.00;2.00;;;;;15.37;70.59;100385.75;5015888;28;8831;-60
2023/10/07 03:26:09;;;;;;;;;6.75;6.75;;;;;15.39;70.76;100383.78;5026947;28;8830;-58
2023/10/07 03:28:46;;;;;;;;;8.00;8.00;;;;;15.40;70.77;100385.47;5055151;28;8834;-57
2023/10/07 03:31:18;;;;;;;;;9.50;9.25;;;;;15.41;71.09;100385.31;5041723;28;8848;-57
2023/10/07 03:33:48;;;;;;;;;9.25;7.25;;;;;15.42;70.81;100383.50;5035397;28;8832;-57
2023/10/07 03:39:42;;;;;;;;;13.50;13.00;;;;;15.44;71.11;100385.06;5129493;27;13370;-58
2023/10/07 03:42:09;;;;;;;;;12.25;10.50;;;;;15.52;70.49;100387.00;5112113;28;8824;-59
2023/10/07 03:44:37;;;;;;;;;12.00;9.50;;;;;15.57;70.90;100398.19;5113013;28;8824;-60
2023/10/07 03:47:10;;;;;;;;;11.50;11.50;;;;;15.59;70.49;100390.81;5112205;28;8835;-60
2023/10/07 03:49:39;;;;;;;;;11.50;8.50;;;;;15.58;70.92;100381.94;5112749;28;8828;-60
2023/10/07 03:52:12;;;;;;;;;12.75;11.00;;;;;15.59;70.87;100380.09;5113154;28;8832;-60
2023/10/07 03:54:40;;;;;;;;;12.00;9.00;;;;;15.59;71.05;100380.09;5112595;28;9826;-60
2023/10/07 03:57:08;;;;;;;;;14.25;11.50;;;;;15.59;70.85;100380.94;5111946;28;8957;-60
2023/10/07 03:59:36;;;;;;;;;12.50;9.25;;;;;15.60;70.75;100376.41;5112526;28;8830;-60
2023/10/07 04:02:18;;;;;;;;;10.50;9.50;;;;;15.61;70.99;100380.81;5112331;28;9521;-60
2023/10/07 04:04:46;;;;;;;;;10.67;9.67;;;;;15.61;71.13;100378.97;5112428;28;8913;-59
2023/10/07 04:07:14;;;;;;;;;11.50;10.50;;;;;15.61;70.82;100368.22;5112526;28;9065;-60
2023/10/07 04:09:43;;;;;;;;;7.00;6.00;;;;;15.61;71.34;100362.84;5112035;28;8867;-60
2023/10/07 04:12:14;;;;;;;;;12.25;10.00;;;;;15.60;71.46;100360.31;5111756;28;8901;-59
2023/10/07 04:14:42;;;;;;;;;11.00;10.50;;;;;15.59;71.02;100370.22;5111686;28;8827;-58
2023/10/07 04:17:12;;;;;;;;;10.50;10.00;;;;;15.60;71.46;100371.91;5111467;28;8838;-60
2023/10/07 04:19:42;;;;;;;;;11.50;8.75;;;;;15.61;71.38;100376.28;5111523;28;8840;-58
2023/10/07 04:22:10;;;;;;;;;12.50;11.50;;;;;15.61;71.25;100376.28;5111386;28;8852;-58
2023/10/07 04:24:44;;;;;;;;;13.00;12.00;;;;;15.62;71.94;100380.66;5111839;28;8851;-60
2023/10/07 04:27:18;;;;;;;;;12.00;11.50;;;;;15.62;71.65;100380.66;5111680;28;8836;-58
2023/10/07 04:29:46;;;;;;;;;12.75;12.00;;;;;15.63;71.35;100376.16;5113617;27;8832;-58
2023/10/07 04:32:20;;;;;;;;;13.00;11.50;;;;;15.62;71.71;100369.09;5121290;28;8838;-58
2023/10/07 04:35:06;;;;;;;;;12.50;11.50;;;;;15.64;71.74;100372.47;5111528;28;9085;-59
2023/10/07 04:37:47;;;;;;;;;7.25;6.75;;;;;15.63;71.34;100365.41;5091205;28;8958;-58
2023/10/07 04:43:25;;;;;;;;;12.75;12.00;;;;;15.62;71.61;100358.34;5047092;28;8851;-59
2023/10/07 04:45:53;;;;;;;;;13.00;12.50;;;;;15.62;71.75;100359.16;5090782;28;8835;-58
2023/10/07 04:48:40;;;;;;;;;14.50;13.75;;;;;15.62;71.99;100355.66;5099471;28;8829;-58
2023/10/07 04:51:12;;;;;;;;;15.00;14.50;;;;;15.64;72.01;100356.34;5097613;28;8832;-60
2023/10/07 04:53:39;;;;;;;;;14.00;13.00;;;;;15.65;72.14;100355.34;5097854;28;8825;-59
2023/10/07 04:56:06;;;;;;;;;16.00;13.50;;;;;15.65;71.73;100348.16;5097145;28;8825;-58
2023/10/07 04:58:33;;;;;;;;;13.50;12.50;;;;;15.64;72.44;100350.97;5097742;28;9503;-58
2023/10/07 05:01:22;;;;;;;;;15.25;15.25;;;;;15.65;71.55;100353.53;5097335;28;8870;-58
2023/10/07 05:03:52;;;;;;;;;14.00;10.00;;;;;15.66;72.00;100355.22;5097325;28;8888;-58
2023/10/07 05:06:19;;;;;;;;;14.50;13.50;;;;;15.66;72.09;100359.72;5097545;28;8841;-58
2023/10/07 05:08:46;;;;;;;;;21.00;15.75;;;;;15.66;71.73;100367.78;5097207;28;8836;-58
2023/10/07 05:11:17;;;;;;;;;14.75;12.25;;;;;15.66;72.24;100352.53;5097085;28;8817;-60
2023/10/07 05:13:46;;;;;;;;;12.50;12.25;;;;;15.65;71.71;100353.53;5097133;28;8845;-60
2023/10/07 05:16:14;;;;;;;;;14.00;14.00;;;;;15.66;72.16;100357.03;5097154;28;8836;-59
2023/10/07 05:18:41;;;;;;;;;14.25;13.00;;;;;15.66;71.46;100351.69;5096608;28;8848;-57
2023/10/07 05:21:08;;;;;;;;;12.50;12.00;;;;;15.67;71.88;100350.69;5096722;28;8836;-58
2023/10/07 05:23:37;;;;;;;;;13.75;13.50;;;;;15.68;72.11;100353.22;5097295;28;8970;-58
2023/10/07 05:26:08;;;;;;;;;15.75;12.50;;;;;15.68;72.07;100358.59;5096258;28;8807;-58
2023/10/07 05:28:39;;;;;;;;;19.50;16.00;;;;;15.69;71.87;100354.09;5096989;28;9499;-57
2023/10/07 05:31:08;;;;;;;;;10.50;10.00;;;;;15.71;71.94;100365.53;5096590;28;8810;-58
2023/10/07 05:33:36;;;;;;;;;12.75;11.50;;;;;15.71;72.44;100358.31;5096877;28;8834;-58
2023/10/07 05:36:08;;;;;;;;;10.50;9.00;;;;;15.71;72.27;100352.94;5100159;28;8846;-57
2023/10/07 05:38:36;;;;;;;;;15.50;15.00;;;;;15.73;72.09;100358.16;5103214;28;8847;-58
2023/10/07 05:41:06;;;;;;;;;17.75;15.00;;;;;15.72;72.15;100365.41;5109374;28;8822;-60
2023/10/07 05:43:33;;;;;;;;;12.25;11.50;;;;;15.73;72.08;100366.22;5096504;28;8809;-58
2023/10/07 05:46:01;;;;;;;;;12.50;8.50;;;;;15.75;72.16;100364.22;5096459;28;8828;-58
2023/10/07 05:48:29;;;;;;;;;12.00;11.50;;;;;15.75;71.73;100358.84;5096894;28;8817;-58
2023/10/07 05:50:57;;;;;;;;;18.00;17.50;;;;;15.76;72.31;100368.63;5096087;28;8841;-59
2023/10/07 05:53:25;;;;;;;;;17.75;15.00;;;;;15.77;72.08;100359.59;5096117;28;8814;-58
2023/10/07 05:55:53;;;;;;;;;13.50;10.50;;;;;15.79;72.15;100347.69;5095985;28;8834;-57
2023/10/07 05:58:22;;;;;;;;;17.25;14.50;;;;;15.81;72.19;100352.91;5095678;28;9502;-58
2023/10/07 06:00:51;;;;;;;;;16.50;14.00;;;;;15.82;72.37;100343.88;5093091;28;8836;-58
2023/10/07 06:03:19;;;;;;;;;16.67;14.67;;;;;15.83;72.37;100350.94;5095040;28;8853;-58
2023/10/07 06:05:46;;;;;;;;;15.25;13.50;;;;;15.82;72.41;100354.59;5095862;28;8822;-58
2023/10/07 06:08:15;;;;;;;;;12.50;12.50;;;;;15.84;72.77;100360.69;5095180;28;8822;-58
2023/10/07 06:10:44;;;;;;;;;12.25;10.75;;;;;15.85;72.61;100362.41;5094452;28;8845;-58
2023/10/07 06:13:15;;;;;;;;;17.50;15.75;;;;;15.86;72.40;100366.78;5094269;28;8911;-58
2023/10/07 06:15:43;;;;;;;;;12.00;12.00;;;;;15.87;72.69;100363.94;5093759;28;8841;-57
2023/10/07 06:18:11;;;;;;;;;14.00;13.25;;;;;15.88;72.48;100362.09;5093860;28;8846;-58
2023/10/07 06:20:46;;;;;;;;;14.50;13.00;;;;;15.89;72.25;100361.09;5093122;28;8838;-58
2023/10/07 06:23:15;;;;;;;;;15.50;14.00;;;;;15.90;72.29;100368.16;5093327;28;8845;-58
2023/10/07 06:25:48;;;;;;;;;15.25;12.00;;;;;15.91;72.12;100377.94;5094414;28;8857;-59
2023/10/07 06:28:25;;;;;;;;;17.50;15.25;;;;;15.91;72.81;100378.75;5095072;28;8814;-58
2023/10/07 06:30:56;;;;;;;;;18.25;17.50;;;;;15.93;72.62;100384.00;5094151;28;9522;-58
2023/10/07 06:33:26;;;;;;;;;7.00;5.00;;;;;15.95;72.33;100387.38;5094332;28;8984;-58
2023/10/07 06:39:05;;;;;;;;;13.50;10.50;;;;;15.96;72.79;100381.88;5088435;28;8771;-58
2023/10/07 06:41:33;;;;;;;;;13.00;12.00;;;;;15.98;72.60;100381.72;5094433;28;8856;-59
2023/10/07 06:44:02;;;;;;;;;19.50;17.00;;;;;15.96;72.44;100384.56;5093561;28;8842;-58
2023/10/07 06:46:31;;;;;;;;;15.50;14.50;;;;;15.99;73.06;100396.84;5094668;28;8832;-58
2023/10/07 06:49:03;;;;;;;;;14.50;12.75;;;;;16.00;72.95;100395.88;5102030;28;8811;-57
2023/10/07 06:51:31;;;;;;;;;16.50;14.50;;;;;16.01;72.66;100397.56;5108057;28;8934;-58
2023/10/07 06:54:03;;;;;;;;;15.00;14.50;;;;;16.01;73.02;100398.38;5105334;28;8832;-59
2023/10/07 06:56:33;;;;;;;;;12.25;12.25;;;;;16.04;72.54;100383.81;5100129;28;8826;-58
2023/10/07 06:59:03;;;;;;;;;9.25;8.50;;;;;16.06;72.56;100388.06;5093606;28;8821;-57
2023/10/07 07:01:51;;;;;;;;;11.00;11.00;;;;;16.09;72.30;100392.28;5093843;28;9535;-58
2023/10/07 07:04:23;;;;;;;;;18.00;16.00;;;;;16.11;72.34;100384.94;5093828;28;8932;-58
2023/10/07 07:09:57;;;;;;;;;17.00;16.00;;;;;16.15;72.68;100389.88;5078222;28;8849;-58
2023/10/07 07:12:26;;;;;;;;;18.50;17.00;;;;;16.17;72.64;100390.59;5092681;28;8837;-58
2023/10/07 07:14:59;;;;;;;;;17.50;15.75;;;;;16.20;72.43;100392.97;5094034;28;8992;-59
2023/10/07 07:17:30;;;;;;;;;18.75;18.25;;;;;16.23;72.47;100403.41;5092935;28;8834;-58
2023/10/07 07:22:42;;;;;;;;;15.50;14.00;;;;;16.28;72.19;100393.94;5093279;28;8884;-58
2023/10/07 07:25:12;;;;;;;;;22.25;18.25;;;;;16.30;72.74;100389.25;5094684;28;8836;-58
2023/10/07 07:27:44;;;;;;;;;15.25;14.00;;;;;16.33;71.96;100386.25;5094170;28;8822;-57
2023/10/07 07:30:19;;;;;;;;;18.75;17.50;;;;;16.37;72.20;100389.53;5094040;28;8920;-57
2023/10/07 07:32:55;;;;;;;;;16.25;12.75;;;;;16.39;72.78;100393.78;5094224;28;8907;-60
2023/10/07 07:35:37;;;;;;;;;14.50;10.00;;;;;16.43;72.62;100379.06;5094108;28;8822;-60
2023/10/07 07:38:11;;;;;;;;;13.50;13.50;;;;;16.45;72.02;100382.44;5094216;28;8834;-60
2023/10/07 07:40:42;;;;;;;;;16.50;15.50;;;;;16.47;72.54;100388.50;5094197;28;8830;-60
2023/10/07 07:43:13;;;;;;;;;15.75;14.75;;;;;16.51;72.29;100379.16;5094208;28;8834;-61
2023/10/07 07:45:40;;;;;;;;;15.00;14.50;;;;;16.56;71.91;100379.53;5093809;28;8822;-60
2023/10/07 07:48:10;;;;;;;;;11.50;11.50;;;;;16.61;72.04;100381.78;5093696;28;8825;-61
2023/10/07 07:50:41;;;;;;;;;14.50;12.00;;;;;16.66;71.74;100388.41;5094118;28;8821;-60
2023/10/07 07:53:09;;;;;;;;;16.00;15.00;;;;;16.70;72.36;100384.41;5093799;28;8836;-61
2023/10/07 07:55:43;;;;;;;;;12.00;11.25;;;;;16.73;72.03;100384.13;5094730;28;8819;-58
2023/10/07 07:58:11;;;;;;;;;13.50;13.00;;;;;16.76;72.08;100381.13;5104888;28;8877;-57
2023/10/07 08:00:40;;;;;;;;;16.00;12.00;;;;;16.79;72.12;100399.66;5093217;28;8838;-58
2023/10/07 08:03:08;;;;;;;;;12.50;11.50;;;;;16.80;71.86;100390.56;5092955;28;8849;-58
2023/10/07 08:05:36;;;;;;;;;13.25;12.25;;;;;16.82;72.19;100388.63;5093137;28;8968;-58
2023/10/07 08:08:09;;;;;;;;;13.00;12.50;;;;;16.86;71.89;100390.00;5093087;28;8837;-58
2023/10/07 08:10:37;;;;;;;;;12.75;11.50;;;;;16.89;72.21;100383.47;5093009;28;8821;-58
2023/10/07 08:13:07;;;;;;;;;14.75;12.75;;;;;16.96;71.49;100390.78;5092875;28;8833;-59
2023/10/07 08:15:41;;;;;;;;;16.00;14.00;;;;;17.04;71.34;100392.72;5092590;28;8841;-58
2023/10/07 08:18:09;;;;;;;;;13.80;12.60;;;;;17.16;71.43;100402.28;5093361;28;9848;-58
2023/10/07 08:20:44;;;;;;;;;10.80;9.40;;;;;17.28;71.18;100403.72;5092387;28;8821;-58
2023/10/07 08:23:22;;;;;;;;;12.80;9.60;;;;;17.40;71.05;100408.75;5092403;28;8872;-58
2023/10/07 08:25:57;;;;;;;;;15.50;13.00;;;;;17.53;70.60;100409.22;5096768;28;8859;-57
2023/10/07 08:28:41;;;;;;;;;14.00;11.80;;;;;17.65;70.28;100402.59;5098091;28;9483;-58
2023/10/07 08:31:14;;;;;;;;;13.20;12.20;;;;;17.73;70.26;100391.91;5097620;28;8818;-58
2023/10/07 08:33:43;;;;;;;;;12.00;9.20;;;;;17.74;70.29;100393.59;5097635;28;8880;-59
2023/10/07 08:36:11;;;;;;;;;14.00;10.40;;;;;17.76;70.31;100383.50;5096922;28;8968;-58
2023/10/07 08:38:43;;;;;;;;;10.00;10.00;;;;;17.79;70.25;100385.03;5096892;28;8822;-60
2023/10/07 08:41:16;;;;;;;;;14.60;12.80;;;;;17.81;70.81;100386.56;5096211;28;8818;-60
2023/10/07 08:43:44;;;;;;;;;12.60;12.00;;;;;17.85;70.59;100377.16;5096805;28;8968;-58
2023/10/07 08:46:15;;;;;;;;;14.80;12.20;;;;;17.90;70.49;100372.16;5096751;28;8844;-59
2023/10/07 08:48:49;;;;;;;;;9.40;9.20;;;;;17.94;70.10;100381.63;5096711;28;8852;-58
2023/10/07 08:51:21;;;;;;;;;9.60;9.40;;;;;18.03;70.26;100374.41;5096109;28;8968;-58
2023/10/07 08:53:49;;;;;;;;;13.00;10.40;;;;;18.03;69.93;100375.28;5096645;28;8817;-58
2023/10/07 08:56:18;;;;;;;;;11.00;11.00;;;;;18.06;69.78;100376.81;5100758;28;8824;-58
2023/10/07 08:58:49;;;;;;;;;13.00;10.00;;;;;18.13;69.90;100376.00;5116869;28;8831;-59
2023/10/07 09:01:18;;;;;;;;;12.40;10.00;;;;;18.22;69.72;100374.22;5115860;28;8819;-60
2023/10/07 09:03:47;;;;;;;;;11.60;9.40;;;;;18.35;69.57;100370.09;5104007;28;8842;-58
2023/10/07 09:09:24;;;;;;;;;9.00;8.60;;;;;18.42;69.40;100375.69;5077850;28;8785;-58
2023/10/07 09:11:52;;;;;;;;;6.20;6.00;;;;;18.37;69.61;100367.25;5087831;28;8841;-57
2023/10/07 09:14:19;;;;;;;;;13.40;12.20;;;;;18.33;69.57;100365.84;5095404;28;8837;-58
2023/10/07 09:16:49;;;;;;;;;9.00;7.40;;;;;18.31;69.62;100382.22;5095432;28;8829;-58
2023/10/07 09:19:20;;;;;;;;;4.00;4.00;;;;;18.29;69.52;100381.47;5095429;28;8821;-58
2023/10/07 09:21:56;;;;;;;;;8.20;7.40;;;;;18.31;70.10;100389.44;5094951;28;8934;-60
2023/10/07 09:24:25;;;;;;;;;7.80;6.40;;;;;18.33;70.12;100379.34;5095253;28;8826;-60
2023/10/07 09:26:57;;;;;;;;;10.40;10.00;;;;;18.37;69.64;100367.25;5095249;28;8830;-58
2023/10/07 09:29:25;;;;;;;;;7.80;7.00;;;;;18.43;69.22;100374.69;5095427;28;9027;-58
2023/10/07 09:31:56;;;;;;;;;6.60;6.00;;;;;18.50;69.03;100368.47;5095403;28;8830;-58
2023/10/07 09:34:41;;;;;;;;;6.40;6.40;;;;;18.56;69.36;100365.13;5095638;28;8857;-58
2023/10/07 09:37:12;;;;;;;;;5.60;5.60;;;;;18.64;69.39;100367.88;5095443;28;8859;-58
2023/10/07 09:39:45;;;;;;;;;9.60;7.00;;;;;18.67;69.01;100359.44;5095274;28;8865;-58
2023/10/07 09:42:26;;;;;;;;;9.20;8.60;;;;;18.66;69.11;100373.94;5095460;28;8868;-58
2023/10/07 09:44:54;;;;;;;;;6.80;6.80;;;;;18.72;69.30;100381.38;5095132;28;8842;-58
2023/10/07 09:47:22;;;;;;;;;9.20;9.00;;;;;18.85;68.93;100384.47;5095251;28;8834;-59
2023/10/07 09:49:50;;;;;;;;;4.00;4.00;;;;;19.00;68.65;100377.44;5094783;28;8822;-58
2023/10/07 09:52:18;;;;;;;;;10.80;9.20;;;;;19.22;67.90;100390.34;5094670;28;8844;-58
2023/10/07 09:54:47;;;;;;;;;9.00;7.00;;;;;19.44;67.81;100391.56;5095153;28;8853;-58
2023/10/07 09:57:19;;;;;;;;;6.60;6.60;;;;;19.69;66.92;100385.13;5093508;28;8826;-58
2023/10/07 09:59:48;;;;;;;;;7.00;7.00;;;;;19.97;66.64;100381.94;5091972;28;8941;-58
2023/10/07 10:02:24;;;;;;;;;5.60;5.60;;;;;20.33;65.86;100385.91;5092809;28;8996;-59
2023/10/07 10:04:52;;;;;;;;;6.80;6.60;;;;;20.58;65.24;100371.31;5093867;28;8918;-58
2023/10/07 10:07:21;;;;;;;;;10.20;10.20;;;;;20.78;64.87;100364.44;5093796;28;8825;-58
2023/10/07 10:10:05;;;;;;;;;5.20;4.80;;;;;20.89;64.50;100358.69;5095042;28;8845;-59
2023/10/07 10:12:33;;;;;;;;;6.20;6.20;;;;;20.98;64.29;100360.31;5104483;28;8813;-59
2023/10/07 10:15:50;;;;;;;;;4.40;4.40;;;;;20.99;64.71;100356.56;5114875;28;8808;-58
2023/10/07 10:17:56;;;;;;;;;4.80;4.80;;;;;20.95;64.87;100357.97;5114536;28;8858;-59
2023/10/07 10:20:27;;;;;;;;;6.60;6.60;;;;;20.96;64.87;100355.06;5114527;28;8958;-59
2023/10/07 10:22:57;;;;;;;;;5.00;5.00;;;;;21.13;64.35;100361.25;5113304;28;8835;-58
2023/10/07 10:25:36;;;;;;;;;5.00;5.00;;;;;21.49;64.08;100355.03;5107740;28;8948;-59
2023/10/07 10:28:07;;;;;;;;;6.80;6.20;;;;;22.01;62.70;100358.66;5094558;28;8830;-60
2023/10/07 10:30:35;;;;;;;;;5.00;4.40;;;;;22.54;61.57;100350.28;5100168;28;8804;-57
2023/10/07 10:33:08;;;;;;;;;3.20;3.20;;;;;23.00;60.71;100359.03;5110442;28;8838;-58
2023/10/07 10:35:36;;;;;;;;;4.60;4.60;;;;;23.28;60.37;100357.31;5098019;28;8840;-58
2023/10/07 10:38:09;;;;;;;;;6.20;4.80;;;;;23.28;60.47;100370.91;5105952;28;8808;-59
2023/10/07 10:40:39;;;;;;;;;2.00;2.00;;;;;23.31;60.58;100362.34;5112980;28;8850;-58
2023/10/07 10:43:07;;;;;;;;;2.00;2.00;;;;;23.42;60.57;100367.25;5100274;28;9912;-59
2023/10/07 10:45:35;;;;;;;;;4.00;4.00;;;;;23.66;59.65;100365.00;5105510;28;9730;-59
2023/10/07 10:48:04;;;;;;;;;5.80;4.20;;;;;23.85;59.47;100352.59;5093155;28;8837;-58
2023/10/07 10:50:32;;;;;;;;;4.00;3.20;;;;;23.71;59.77;100359.81;5093842;28;8823;-59
2023/10/07 10:53:00;;;;;;;;;2.00;2.00;;;;;23.52;60.26;100351.47;5093739;28;9609;-58
2023/10/07 10:55:29;;;;;;;;;4.00;4.00;;;;;23.32;61.27;100345.00;5093474;28;8833;-58
2023/10/07 10:57:58;;;;;;;;;2.80;2.80;;;;;23.16;60.96;100335.19;5093379;28;8844;-58
2023/10/07 11:00:25;;;;;;;;;3.60;3.60;;;;;22.95;62.05;100339.75;5093273;28;8837;-57
2023/10/07 11:02:55;;;;;;;;;4.60;4.60;;;;;22.83;62.06;100338.56;5092872;28;8833;-58
2023/10/07 11:05:25;;;;;;;;;1.60;1.60;;;;;22.75;61.58;100336.78;5093374;28;8836;-58
2023/10/07 11:07:54;;;;;;;;;2.80;2.80;;;;;22.70;62.54;100338.41;5093567;28;8858;-57
2023/10/07 11:10:23;;;;;;;;;2.40;2.40;;;;;22.68;61.76;100337.75;5093781;28;8936;-58
2023/10/07 11:12:52;;;;;;;;;4.40;4.40;;;;;22.73;61.95;100341.59;5093466;28;8842;-59
2023/10/07 11:15:24;;;;;;;;;1.20;1.20;;;;;22.89;61.51;100335.94;5092966;28;8830;-57
2023/10/07 11:17:52;;;;;;;;;2.00;2.00;;;;;23.16;60.64;100331.66;5093149;28;8830;-58
2023/10/07 11:20:20;;;;;;;;;4.00;4.00;;;;;23.42;60.31;100326.47;5093452;28;8845;-59
2023/10/07 11:22:49;;;;;;;;;1.00;1.00;;;;;23.76;59.58;100315.72;5093446;28;8948;-59
2023/10/07 11:25:18;;;;;;;;;1.00;1.00;;;;;24.17;58.54;100311.22;5093642;28;9526;-60
2023/10/07 11:27:48;;;;;;;;;2.00;2.00;;;;;24.28;58.37;100313.38;5092591;28;8864;-61
2023/10/07 11:30:16;;;;;;;;;3.60;3.60;;;;;24.27;58.23;100307.09;5093427;28;8848;-61
2023/10/07 11:32:44;;;;;;;;;1.20;1.20;;;;;24.19;59.00;100300.97;5092498;28;8877;-59
2023/10/07 11:35:12;;;;;;;;;3.60;3.60;;;;;24.04;59.17;100308.41;5092863;28;8968;-60
2023/10/07 11:37:41;;;;;;;;;2.00;1.00;;;;;23.76;59.62;100312.97;5092809;28;8829;-59
2023/10/07 11:40:11;;;;;;;;;1.80;1.20;;;;;23.51;59.78;100315.28;5092427;28;8818;-61
2023/10/07 11:42:40;;;;;;;;;1.60;1.60;;;;;23.36;60.56;100324.56;5093062;28;8818;-61
2023/10/07 11:45:09;;;;;;;;;2.40;2.00;;;;;23.28;60.29;100313.81;5092914;28;8838;-58
2023/10/07 11:47:37;;;;;;;;;2.40;2.40;;;;;23.17;60.94;100308.88;5057284;28;8903;-58
2023/10/07 11:50:07;;;;;;;;;2.00;2.00;;;;;23.10;61.36;100310.66;5052449;28;8834;-58
2023/10/07 11:52:37;;;;;;;;;1.20;1.20;;;;;23.09;60.38;100315.25;5063917;28;8808;-58
2023/10/07 11:55:07;;;;;;;;;1.00;1.00;;;;;23.08;61.17;100318.16;5056593;28;8828;-58
2023/10/07 11:57:35;;;;;;;;;1.60;1.60;;;;;22.96;61.42;100316.97;5084737;28;8830;-60
2023/10/07 12:00:09;;;;;;;;;0.00;0.00;;;;;23.38;60.36;100315.16;5094802;28;8960;-58
2023/10/07 12:02:38;;;;;;;;;1.00;1.00;;;;;23.70;59.85;100320.06;5056452;28;8846;-58